地図

経路データ

SID SEASON NUMBER BASIN SUBBASIN NAME ISO_TIME NATURE LAT LON WMO_WIND WMO_PRES WMO_AGENCY TRACK_TYPE DIST2LAND LANDFALL IFLAG USA_AGENCY USA_ATCF_ID USA_LAT USA_LON USA_RECORD USA_STATUS USA_WIND USA_PRES USA_SSHS USA_R34_NE USA_R34_SE USA_R34_SW USA_R34_NW USA_R50_NE USA_R50_SE USA_R50_SW USA_R50_NW USA_R64_NE USA_R64_SE USA_R64_SW USA_R64_NW USA_POCI USA_ROCI USA_RMW USA_EYE TOKYO_LAT TOKYO_LON TOKYO_GRADE TOKYO_WIND TOKYO_PRES TOKYO_R50_DIR TOKYO_R50_LONG TOKYO_R50_SHORT TOKYO_R30_DIR TOKYO_R30_LONG TOKYO_R30_SHORT TOKYO_LAND CMA_LAT CMA_LON CMA_CAT CMA_WIND CMA_PRES HKO_LAT HKO_LON HKO_CAT HKO_WIND HKO_PRES NEWDELHI_LAT NEWDELHI_LON NEWDELHI_GRADE NEWDELHI_WIND NEWDELHI_PRES NEWDELHI_CI NEWDELHI_DP NEWDELHI_POCI REUNION_LAT REUNION_LON REUNION_TYPE REUNION_WIND REUNION_PRES REUNION_TNUM REUNION_CI REUNION_RMW REUNION_R34_NE REUNION_R34_SE REUNION_R34_SW REUNION_R34_NW REUNION_R50_NE REUNION_R50_SE REUNION_R50_SW REUNION_R50_NW REUNION_R64_NE REUNION_R64_SE REUNION_R64_SW REUNION_R64_NW BOM_LAT BOM_LON BOM_TYPE BOM_WIND BOM_PRES BOM_TNUM BOM_CI BOM_RMW BOM_R34_NE BOM_R34_SE BOM_R34_SW BOM_R34_NW BOM_R50_NE BOM_R50_SE BOM_R50_SW BOM_R50_NW BOM_R64_NE BOM_R64_SE BOM_R64_SW BOM_R64_NW BOM_ROCI BOM_POCI BOM_EYE BOM_POS_METHOD BOM_PRES_METHOD NADI_LAT NADI_LON NADI_CAT NADI_WIND NADI_PRES WELLINGTON_LAT WELLINGTON_LON WELLINGTON_WIND WELLINGTON_PRES DS824_LAT DS824_LON DS824_STAGE DS824_WIND DS824_PRES TD9636_LAT TD9636_LON TD9636_STAGE TD9636_WIND TD9636_PRES TD9635_LAT TD9635_LON TD9635_WIND TD9635_PRES TD9635_ROCI NEUMANN_LAT NEUMANN_LON NEUMANN_CLASS NEUMANN_WIND NEUMANN_PRES MLC_LAT MLC_LON MLC_CLASS MLC_WIND MLC_PRES USA_GUST BOM_GUST BOM_GUST_PER REUNION_GUST REUNION_GUST_PER USA_SEAHGT USA_SEARAD_NE USA_SEARAD_SE USA_SEARAD_SW USA_SEARAD_NW STORM_SPEED STORM_DIR
1984259N19245 1984 80 EP MM NORBERT 1984-09-14 18:00:00 TS 18.5000 -115.500 30 hurdat_epa main 754 754 O_________O___ hurdat_epa EP151984 18.5000 -115.500 TD 30 -1 18.5000 -115.500 1 30 4 0
1984259N19245 1984 80 EP MM NORBERT 1984-09-14 21:00:00 TS 18.2826 -115.528 main 769 769 P_________P___ EP151984 18.2825 -115.533 TD 32 -1 18.2830 -115.515 1 32 4 0
1984259N19245 1984 80 EP MM NORBERT 1984-09-15 00:00:00 TS 18.1000 -115.500 35 hurdat_epa main 784 784 O_________O___ hurdat_epa EP151984 18.1000 -115.500 TS 35 0 18.1000 -115.500 2 35 3 155
1984259N19245 1984 80 EP MM NORBERT 1984-09-15 03:00:00 TS 17.9772 -115.381 main 785 777 P_________P___ EP151984 17.9775 -115.365 TS 35 0 17.9760 -115.431 2 35 3 128
1984259N19245 1984 80 EP MM NORBERT 1984-09-15 06:00:00 TS 17.8997 -115.229 35 hurdat_epa main 778 771 O_________P___ hurdat_epa EP151984 17.9000 -115.200 TS 35 0 17.8989 -115.315 2 35 3 118
1984259N19245 1984 80 EP MM NORBERT 1984-09-15 09:00:00 TS 17.8437 -115.111 main 779 772 P_________P___ EP151984 17.8425 -115.093 TS 35 0 17.8473 -115.166 2 35 2 115
1984259N19245 1984 80 EP MM NORBERT 1984-09-15 12:00:00 TS 17.8000 -115.000 35 hurdat_epa main 772 765 O_________O___ hurdat_epa EP151984 17.8000 -115.000 TS 35 0 17.8000 -115.000 2 35 2 116
1984259N19245 1984 80 EP MM NORBERT 1984-09-15 15:00:00 TS 17.7493 -114.908 main 773 767 P_________P___ EP151984 17.7574 -114.923 TS 35 0 17.7248 -114.864 2 35 2 118
1984259N19245 1984 80 EP MM NORBERT 1984-09-15 18:00:00 TS 17.6874 -114.778 35 hurdat_epa main 767 760 O_________P___ hurdat_epa EP151984 17.7000 -114.800 TS 35 0 17.6497 -114.710 2 35 4 115
1984259N19245 1984 80 EP MM NORBERT 1984-09-15 21:00:00 TS 17.5993 -114.567 main 762 749 P_________P___ EP151984 17.6075 -114.580 TS 35 0 17.5747 -114.526 2 35 5 112
1984259N19245 1984 80 EP MM NORBERT 1984-09-16 00:00:00 TS 17.5000 -114.300 35 hurdat_epa main 752 743 O_________O___ hurdat_epa EP151984 17.5000 -114.300 TS 35 0 17.5000 -114.300 2 35 6 111
1984259N19245 1984 80 EP MM NORBERT 1984-09-16 03:00:00 TS 17.3986 -114.013 main 743 735 P_________P___ EP151984 17.3925 -114.015 TS 35 0 17.4171 -114.006 2 42 6 108
1984259N19245 1984 80 EP MM NORBERT 1984-09-16 06:00:00 TS 17.3088 -113.693 35 hurdat_epa main 735 719 O_________P___ hurdat_epa EP151984 17.3000 -113.700 TS 35 0 17.3354 -113.672 2 50 7 103
1984259N19245 1984 80 EP MM NORBERT 1984-09-16 09:00:00 TS 17.2471 -113.339 main 724 710 P_________P___ EP151984 17.2425 -113.343 TS 50 0 17.2609 -113.328 2 57 7 99
1984259N19245 1984 80 EP MM NORBERT 1984-09-16 12:00:00 TS 17.2000 -113.000 65 hurdat_epa main 710 701 O_________O___ hurdat_epa EP151984 17.2000 -113.000 HU 65 1 17.2000 -113.000 3 65 6 100
1984259N19245 1984 80 EP MM NORBERT 1984-09-16 15:00:00 TS 17.1398 -112.726 main 707 699 P_________P___ EP151984 17.1424 -112.735 HU 67 1 17.1321 -112.700 3 67 5 102
1984259N19245 1984 80 EP MM NORBERT 1984-09-16 18:00:00 TS 17.0956 -112.481 70 hurdat_epa main 699 688 O_________P___ hurdat_epa EP151984 17.1000 -112.500 HU 70 1 17.0825 -112.425 3 70 5 98
1984259N19245 1984 80 EP MM NORBERT 1984-09-16 21:00:00 TS 17.0692 -112.217 main 688 681 P_________P___ EP151984 17.0700 -112.227 HU 72 1 17.0666 -112.187 3 72 5 89
1984259N19245 1984 80 EP MM NORBERT 1984-09-17 00:00:00 TS 17.1000 -112.000 75 hurdat_epa main 681 667 O_________O___ hurdat_epa EP151984 17.1000 -112.000 HU 75 1 17.1000 -112.000 4 75 4 66
1984259N19245 1984 80 EP MM NORBERT 1984-09-17 03:00:00 TS 17.2205 -111.865 main 667 643 P_________P___ EP151984 17.2275 -111.870 HU 77 1 17.1995 -111.851 4 76 4 35
1984259N19245 1984 80 EP MM NORBERT 1984-09-17 06:00:00 TS 17.3868 -111.788 80 hurdat_epa main 643 629 O_________P___ hurdat_epa EP151984 17.4000 -111.800 HU 80 1 17.3473 -111.753 4 77 4 23
1984259N19245 1984 80 EP MM NORBERT 1984-09-17 09:00:00 TS 17.5485 -111.722 main 629 607 P_________P___ EP151984 17.5575 -111.728 HU 80 1 17.5214 -111.704 4 78 3 16
1984259N19245 1984 80 EP MM NORBERT 1984-09-17 12:00:00 TS 17.7000 -111.700 80 hurdat_epa main 607 597 O_________O___ hurdat_epa EP151984 17.7000 -111.700 HU 80 1 17.7000 -111.700 4 80 3 355
1984259N19245 1984 80 EP MM NORBERT 1984-09-17 15:00:00 TS 17.8068 -111.723 main 597 586 P_________P___ EP151984 17.7925 -111.728 HU 82 1 17.8499 -111.708 4 85 2 339
1984259N19245 1984 80 EP MM NORBERT 1984-09-17 18:00:00 TS 17.9250 -111.790 85 hurdat_epa main 589 568 O_________P___ hurdat_epa EP151984 17.9000 -111.800 HU 85 2 17.9998 -111.760 4 90 3 336
1984259N19245 1984 80 EP MM NORBERT 1984-09-17 21:00:00 TS 18.1068 -111.867 main 572 554 P_________P___ EP151984 18.0925 -111.870 HU 92 2 18.1499 -111.858 4 95 4 332
1984259N19245 1984 80 EP MM NORBERT 1984-09-18 00:00:00 TS 18.3000 -112.000 100 hurdat_epa main 554 548 O_________O___ hurdat_epa EP151984 18.3000 -112.000 HU 100 3 18.3000 -112.000 4 100 5 316
1984259N19245 1984 80 EP MM NORBERT 1984-09-18 03:00:00 TS 18.4567 -112.221 main 542 541 P_________P___ EP151984 18.4576 -112.235 HU 100 3 18.4541 -112.178 4 100 5 304
1984259N19245 1984 80 EP MM NORBERT 1984-09-18 06:00:00 TS 18.6019 -112.474 100 hurdat_epa main 546 536 O_________P___ hurdat_epa EP151984 18.6000 -112.500 HU 100 3 18.6076 -112.397 4 100 5 304
1984259N19245 1984 80 EP MM NORBERT 1984-09-18 09:00:00 TS 18.7574 -112.686 main 537 533 P_________P___ EP151984 18.7574 -112.700 HU 100 3 18.7572 -112.643 4 100 5 306
1984259N19245 1984 80 EP MM NORBERT 1984-09-18 12:00:00 TS 18.9000 -112.900 100 hurdat_epa main 539 535 O_________O___ hurdat_epa EP151984 18.9000 -112.900 HU 100 3 18.9000 -112.900 4 100 5 301
1984259N19245 1984 80 EP MM NORBERT 1984-09-18 15:00:00 TS 19.0111 -113.141 main 541 539 P_________P___ EP151984 19.0000 -113.143 HU 100 3 19.0442 -113.135 4 100 5 295
1984259N19245 1984 80 EP MM NORBERT 1984-09-18 18:00:00 TS 19.1199 -113.394 100 hurdat_epa main 552 543 O_________P___ hurdat_epa EP151984 19.1000 -113.400 HU 100 3 19.1798 -113.378 4 100 5 299
1984259N19245 1984 80 EP MM NORBERT 1984-09-18 21:00:00 TS 19.2682 -113.634 main 549 549 P_________P___ EP151984 19.2574 -113.635 HU 100 3 19.3005 -113.632 4 100 6 300
1984259N19245 1984 80 EP MM NORBERT 1984-09-19 00:00:00 TS 19.4000 -113.900 100 hurdat_epa main 562 562 O_________O___ hurdat_epa EP151984 19.4000 -113.900 HU 100 3 19.4000 -113.900 4 100 6 290
1984259N19245 1984 80 EP MM NORBERT 1984-09-19 03:00:00 TS 19.4708 -114.234 main 577 577 P_________P___ EP151984 19.4651 -114.250 HU 100 3 19.4878 -114.186 4 100 6 280
1984259N19245 1984 80 EP MM NORBERT 1984-09-19 06:00:00 TS 19.5131 -114.571 100 hurdat_epa main 609 609 O_________P___ hurdat_epa EP151984 19.5000 -114.600 HU 100 3 19.5524 -114.485 4 100 6 280
1984259N19245 1984 80 EP MM NORBERT 1984-09-19 09:00:00 TS 19.5713 -114.835 main 619 619 P_________P___ EP151984 19.5648 -114.850 HU 100 3 19.5909 -114.792 4 100 5 280
1984259N19245 1984 80 EP MM NORBERT 1984-09-19 12:00:00 TS 19.6000 -115.100 100 hurdat_epa main 644 644 O_________O___ hurdat_epa EP151984 19.6000 -115.100 HU 100 3 19.6000 -115.100 4 100 6 271
1984259N19245 1984 80 EP MM NORBERT 1984-09-19 15:00:00 TS 19.5777 -115.446 main 661 661 P_________P___ EP151984 19.5651 -115.450 HU 100 3 19.6155 -115.433 4 100 7 263
1984259N19245 1984 80 EP MM NORBERT 1984-09-19 18:00:00 TS 19.5244 -115.790 100 hurdat_epa main 694 694 O_________P___ hurdat_epa EP151984 19.5000 -115.800 HU 100 3 19.5977 -115.760 4 100 6 262
1984259N19245 1984 80 EP MM NORBERT 1984-09-19 21:00:00 TS 19.4927 -116.069 main 712 712 P_________P___ EP151984 19.4799 -116.072 HU 100 3 19.5311 -116.058 4 100 5 256
1984259N19245 1984 80 EP MM NORBERT 1984-09-20 00:00:00 TS 19.4000 -116.300 100 hurdat_epa main 733 733 O_________O___ hurdat_epa EP151984 19.4000 -116.300 HU 100 3 19.4000 -116.300 4 100 5 235
1984259N19245 1984 80 EP MM NORBERT 1984-09-20 03:00:00 TS 19.1870 -116.528 main 763 763 P_________P___ EP151984 19.1875 -116.538 HU 100 3 19.1853 -116.499 4 102 6 216
1984259N19245 1984 80 EP MM NORBERT 1984-09-20 06:00:00 TS 18.9024 -116.684 100 hurdat_epa main 803 803 O_________P___ hurdat_epa EP151984 18.9000 -116.700 HU 100 3 18.9096 -116.636 4 105 6 199
1984259N19245 1984 80 EP MM NORBERT 1984-09-20 09:00:00 TS 18.6010 -116.735 main 831 831 P_________P___ EP151984 18.6000 -116.745 HU 105 3 18.6041 -116.705 4 107 6 182
1984259N19245 1984 80 EP MM NORBERT 1984-09-20 12:00:00 TS 18.3000 -116.700 110 hurdat_epa main 858 858 O_________O___ hurdat_epa EP151984 18.3000 -116.700 HU 110 3 18.3000 -116.700 4 110 6 171
1984259N19245 1984 80 EP MM NORBERT 1984-09-20 15:00:00 TS 18.0394 -116.639 main 878 878 P_________P___ EP151984 18.0425 -116.630 HU 107 3 18.0303 -116.666 4 111 5 161
1984259N19245 1984 80 EP MM NORBERT 1984-09-20 18:00:00 TS 17.7924 -116.514 105 hurdat_epa main 885 884 O_________P___ hurdat_epa EP151984 17.8000 -116.500 HU 105 3 17.7694 -116.557 4 112 6 151
1984259N19245 1984 80 EP MM NORBERT 1984-09-20 21:00:00 TS 17.5378 -116.346 main 892 892 P_________P___ EP151984 17.5424 -116.338 HU 110 3 17.5239 -116.370 4 113 6 141
1984259N19245 1984 80 EP MM NORBERT 1984-09-21 00:00:00 TS 17.3000 -116.100 115 hurdat_epa main 893 886 O_________O___ hurdat_epa EP151984 17.3000 -116.100 HU 115 4 17.3000 -116.100 4 115 7 131
1984259N19245 1984 80 EP MM NORBERT 1984-09-21 03:00:00 TS 17.0834 -115.793 main 887 874 P_________P___ EP151984 17.0849 -115.795 HU 110 3 17.0788 -115.786 4 112 8 121
1984259N19245 1984 80 EP MM NORBERT 1984-09-21 06:00:00 TS 16.8955 -115.398 105 hurdat_epa main 876 859 O_________P___ hurdat_epa EP151984 16.9000 -115.400 HU 105 3 16.8820 -115.392 4 110 9 113
1984259N19245 1984 80 EP MM NORBERT 1984-09-21 09:00:00 TS 16.7254 -114.929 main 862 841 P_________P___ EP151984 16.7275 -114.930 HU 105 3 16.7192 -114.927 4 107 10 107
1984259N19245 1984 80 EP MM NORBERT 1984-09-21 12:00:00 TS 16.6000 -114.400 105 hurdat_epa main 841 823 O_________O___ hurdat_epa EP151984 16.6000 -114.400 HU 105 3 16.6000 -114.400 4 105 10 101
1984259N19245 1984 80 EP MM NORBERT 1984-09-21 15:00:00 TS 16.5265 -113.865 main 823 794 P_________P___ EP151984 16.5272 -113.880 HU 105 3 16.5242 -113.821 4 107 11 95
1984259N19245 1984 80 EP MM NORBERT 1984-09-21 18:00:00 TS 16.4977 -113.272 105 hurdat_epa main 794 765 O_________P___ hurdat_epa EP151984 16.5000 -113.300 HU 105 3 16.4906 -113.188 4 110 12 92
1984259N19245 1984 80 EP MM NORBERT 1984-09-21 21:00:00 TS 16.4912 -112.584 main 765 742 P_________P___ EP151984 16.4927 -112.600 HU 110 3 16.4866 -112.536 4 112 13 90
1984259N19245 1984 80 EP MM NORBERT 1984-09-22 00:00:00 TS 16.5000 -111.900 115 hurdat_epa main 742 726 O_________O___ hurdat_epa EP151984 16.5000 -111.900 HU 115 4 16.5000 -111.900 4 115 12 90
1984259N19245 1984 80 EP MM NORBERT 1984-09-22 03:00:00 TS 16.4896 -111.319 main 726 682 P_________P___ EP151984 16.4922 -111.327 HU 110 3 16.4820 -111.292 4 112 11 90
1984259N19245 1984 80 EP MM NORBERT 1984-09-22 06:00:00 TS 16.4956 -110.777 105 hurdat_epa main 682 629 O_________P___ hurdat_epa EP151984 16.5000 -110.800 HU 105 3 16.4825 -110.710 4 110 11 88
1984259N19245 1984 80 EP MM NORBERT 1984-09-22 09:00:00 TS 16.5192 -110.214 main 629 580 P_________P___ EP151984 16.5200 -110.227 HU 105 3 16.5166 -110.173 4 107 10 84
1984259N19245 1984 80 EP MM NORBERT 1984-09-22 12:00:00 TS 16.6000 -109.700 105 hurdat_epa main 580 532 O_________O___ hurdat_epa EP151984 16.6000 -109.700 HU 105 3 16.6000 -109.700 4 105 10 75
1984259N19245 1984 80 EP MM NORBERT 1984-09-22 15:00:00 TS 16.7693 -109.257 main 532 485 P_________P___ EP151984 16.7774 -109.255 HU 110 3 16.7452 -109.262 4 107 9 63
1984259N19245 1984 80 EP MM NORBERT 1984-09-22 18:00:00 TS 16.9849 -108.898 115 hurdat_epa main 485 446 O_________P___ hurdat_epa EP151984 17.0000 -108.900 HU 115 4 16.9395 -108.893 4 110 8 56
1984259N19245 1984 80 EP MM NORBERT 1984-09-22 21:00:00 TS 17.1910 -108.599 main 446 415 P_________P___ EP151984 17.1999 -108.597 HU 115 4 17.1641 -108.603 4 112 6 49
1984259N19245 1984 80 EP MM NORBERT 1984-09-23 00:00:00 TS 17.4000 -108.400 115 hurdat_epa main 415 393 O_________O___ hurdat_epa EP151984 17.4000 -108.400 HU 115 4 17.4000 -108.400 4 115 5 35
1984259N19245 1984 80 EP MM NORBERT 1984-09-23 03:00:00 TS 17.5977 -108.297 main 393 380 P_________P___ EP151984 17.5924 -108.312 HU 112 3 17.6133 -108.252 4 112 4 16
1984259N19245 1984 80 EP MM NORBERT 1984-09-23 06:00:00 TS 17.8086 -108.273 110 hurdat_epa main 380 359 O_________P___ hurdat_epa EP151984 17.8000 -108.300 HU 110 3 17.8345 -108.192 4 110 5 4
1984259N19245 1984 80 EP MM NORBERT 1984-09-23 09:00:00 TS 18.0477 -108.250 main 359 350 P_________P___ EP151984 18.0425 -108.263 HU 107 3 18.0634 -108.212 4 107 5 0
1984259N19245 1984 80 EP MM NORBERT 1984-09-23 12:00:00 TS 18.3000 -108.300 105 hurdat_epa main 350 344 O_________O___ hurdat_epa EP151984 18.3000 -108.300 HU 105 3 18.3000 -108.300 4 105 5 338
1984259N19245 1984 80 EP MM NORBERT 1984-09-23 15:00:00 TS 18.5442 -108.457 main 356 351 P_________P___ EP151984 18.5500 -108.470 HU 105 3 18.5265 -108.419 4 106 6 324
1984259N19245 1984 80 EP MM NORBERT 1984-09-23 18:00:00 TS 18.7906 -108.676 105 hurdat_epa main 361 356 O_________P___ hurdat_epa EP151984 18.8000 -108.700 HU 105 3 18.7625 -108.603 4 107 6 321
1984259N19245 1984 80 EP MM NORBERT 1984-09-23 21:00:00 TS 19.0361 -108.878 main 369 365 P_________P___ EP151984 19.0424 -108.893 HU 107 3 19.0171 -108.835 4 108 7 322
1984259N19245 1984 80 EP MM NORBERT 1984-09-24 00:00:00 TS 19.3000 -109.100 110 hurdat_epa main 376 372 O_________O___ hurdat_epa EP151984 19.3000 -109.100 HU 110 3 19.3000 -109.100 4 110 7 322
1984259N19245 1984 80 EP MM NORBERT 1984-09-24 03:00:00 TS 19.5863 -109.334 main 372 336 P_________P___ EP151984 19.5774 -109.328 HU 112 3 19.6129 -109.351 4 111 8 322
1984259N19245 1984 80 EP MM NORBERT 1984-09-24 06:00:00 TS 19.9137 -109.608 115 hurdat_epa main 336 290 O_________P___ hurdat_epa EP151984 19.9000 -109.600 HU 115 4 19.9547 -109.633 4 112 9 321
1984259N19245 1984 80 EP MM NORBERT 1984-09-24 09:00:00 TS 20.2935 -109.933 main 290 247 P_________P___ EP151984 20.2850 -109.928 HU 115 4 20.3191 -109.948 4 113 10 320
1984259N19245 1984 80 EP MM NORBERT 1984-09-24 12:00:00 TS 20.7000 -110.300 115 hurdat_epa main 247 210 O_________O___ hurdat_epa EP151984 20.7000 -110.300 HU 115 4 20.7000 -110.300 4 115 11 318
1984259N19245 1984 80 EP MM NORBERT 1984-09-24 15:00:00 TS 21.0944 -110.692 main 213 193 P_________P___ EP151984 21.0999 -110.685 HU 107 3 21.0780 -110.713 4 108 11 316
1984259N19245 1984 80 EP MM NORBERT 1984-09-24 18:00:00 TS 21.4927 -111.114 100 hurdat_epa main 193 189 O_________P___ hurdat_epa EP151984 21.5000 -111.100 HU 100 3 21.4707 -111.157 4 102 11 314
1984259N19245 1984 80 EP MM NORBERT 1984-09-24 21:00:00 TS 21.8946 -111.573 main 198 192 P_________P___ EP151984 21.9001 -111.565 HU 95 2 21.8780 -111.598 4 96 12 315
1984259N19245 1984 80 EP MM NORBERT 1984-09-25 00:00:00 TS 22.3000 -112.000 90 hurdat_epa main 212 198 O_________O___ hurdat_epa EP151984 22.3000 -112.000 HU 90 2 22.3000 -112.000 4 90 11 319
1984259N19245 1984 80 EP MM NORBERT 1984-09-25 03:00:00 TS 22.6954 -112.334 main 198 176 P_________P___ EP151984 22.6848 -112.330 HU 97 3 22.7271 -112.343 4 93 10 325
1984259N19245 1984 80 EP MM NORBERT 1984-09-25 06:00:00 TS 23.1174 -112.610 105 hurdat_epa main 176 147 O_________P___ hurdat_epa EP151984 23.1000 -112.600 HU 105 3 23.1696 -112.640 4 97 10 331
1984259N19245 1984 80 EP MM NORBERT 1984-09-25 09:00:00 TS 23.5955 -112.872 main 147 120 P_________P___ EP151984 23.5850 -112.865 HU 105 3 23.6273 -112.893 4 101 11 335
1984259N19245 1984 80 EP MM NORBERT 1984-09-25 12:00:00 TS 24.1000 -113.100 105 hurdat_epa main 120 110 O_________O___ hurdat_epa EP151984 24.1000 -113.100 HU 105 3 24.1000 -113.100 4 105 11 338
1984259N19245 1984 80 EP MM NORBERT 1984-09-25 15:00:00 TS 24.5967 -113.314 main 113 111 P_________P___ EP151984 24.6000 -113.330 HU 90 2 24.5869 -113.264 4 93 11 341
1984259N19245 1984 80 EP MM NORBERT 1984-09-25 18:00:00 TS 25.0968 -113.477 75 hurdat_epa main 135 119 O_________P___ hurdat_epa EP151984 25.1000 -113.500 HU 75 1 25.0851 -113.395 4 82 10 347
1984259N19245 1984 80 EP MM NORBERT 1984-09-25 21:00:00 TS 25.5984 -113.572 main 119 67 P_________P___ EP151984 25.5999 -113.588 HU 67 1 25.5907 -113.503 4 71 10 354
1984259N19245 1984 80 EP MM NORBERT 1984-09-26 00:00:00 TS 26.1000 -113.600 60 hurdat_epa main 67 11 O_________O___ hurdat_epa EP151984 26.1000 -113.600 TS 60 0 26.1000 -113.600 2 60 10 1
1984259N19245 1984 80 EP MM NORBERT 1984-09-26 03:00:00 TS 26.6000 -113.563 main 11 0 P_____________ EP151984 26.6000 -113.563 TS 52 0 2 10 5
1984259N19245 1984 80 EP MM NORBERT 1984-09-26 06:00:00 TS 27.1000 -113.500 45 hurdat_epa main 0 O_____________ hurdat_epa EP151984 27.1000 -113.500 TS 45 0 2 10 7

IBTrACS Databaseについて

本データベースは、米国NOAAが公開する1842年以降の世界の熱帯低気圧のベストトラックデータアーカイブInternational Best Track Archive for Climate Stewardship (IBTrACS)を、ウェブで閲覧しやすい形式に変換したものです。

最終更新日:2021-12-01